Weather History for Monarch Pass, CO

Change the Weather History Date:

Tuesday, October 8, 2013

  Actual Average (KGUC) Record (KGUC)
Temperature  
Mean Temperature 42 °F -  
Max Temperature 50 °F 60 °F 71 °F (1996)
Min Temperature 33 °F 25 °F 15 °F (2012)
Degree Days  
Heating Degree Days 24    
Moisture  
Dew Point 20 °F    
Average Humidity 48    
Maximum Humidity 65    
Minimum Humidity 29    
Precipitation  
Precipitation 0.00 in - - ()
Sea Level Pressure  
Sea Level Pressure 30.38 in    
Wind  
Wind Speed 22 mph (WSW)    
Max Wind Speed 30 mph    
Max Gust Speed 38 mph    
Visibility 10 miles    
Events      
Averages and records for this station are not official NWS values.
T = Trace of Precipitation, MM = Missing Value Source: NWS Daily Summary

Daily Weather History Graph

Daily Weather History Graph

Search for Another Location

Airport:

Trip Planner

Search our weather history database for the weather conditions in past years. The results will help you decide how hot, cold, wet, or windy it might be!

Date:

Astronomy

Oct. 08, 2013 Rise Set
Actual Time 7:07 AM MDT 6:36 PM MDT
Civil Twilight 6:41 AM MDT 7:03 PM MDT
Nautical Twilight 6:10 AM MDT 7:34 PM MDT
Astronomical Twilight 5:39 AM MDT 8:04 PM MDT
Moon 11:02 AM MDT (10/8) 9:18 PM MDT (10/8)
Length of Visible Light 12h 22m
Length of Day
11h 29m
Waxing Crescent, 16% of the Moon is Illuminated
Oct 8
Waxing Crescent
Oct 11
First Quarter
Oct 18
Full
Oct 26
Last Quarter
Nov 3
New

Hourly Weather History & Observations

Time (MDT) Temp. Windchill Dew Point Humidity Pressure Visibility Wind Dir Wind Speed Gust Speed Precip Events Conditions
12:10 AM 37.4 °F 27.5 °F 23.0 °F 56% 30.53 in 10.0 mi WSW 18.4 mph - N/A   Clear
12:30 AM 37.4 °F 26.9 °F 23.0 °F 56% 30.51 in 10.0 mi WSW 20.7 mph - N/A   Clear
12:49 AM 37.4 °F 26.6 °F 23.0 °F 56% 30.51 in 10.0 mi WSW 21.9 mph - N/A   Clear
1:10 AM 37.4 °F 26.9 °F 23.0 °F 56% 30.51 in 10.0 mi WSW 20.7 mph - N/A   Clear
1:30 AM 37.4 °F 27.5 °F 23.0 °F 56% 30.51 in 10.0 mi SW 18.4 mph - N/A   Clear
1:49 AM 37.4 °F 27.2 °F 23.0 °F 56% 30.50 in 10.0 mi SW 19.6 mph - N/A   Clear
2:10 AM 37.4 °F 26.9 °F 23.0 °F 56% 30.50 in 10.0 mi WSW 20.7 mph - N/A   Clear
2:30 AM 37.4 °F 27.2 °F 21.2 °F 52% 30.49 in 10.0 mi SW 19.6 mph - N/A   Clear
2:50 AM 35.6 °F 25.5 °F 23.0 °F 60% 30.48 in 10.0 mi WSW 17.3 mph - N/A   Clear
3:10 AM 35.6 °F 25.2 °F 23.0 °F 60% 30.48 in 10.0 mi WSW 18.4 mph - N/A   Clear
3:30 AM 37.4 °F 27.2 °F 23.0 °F 56% 30.48 in 10.0 mi WSW 19.6 mph - N/A   Clear
3:50 AM 35.6 °F 25.9 °F 23.0 °F 60% 30.48 in 10.0 mi West 16.1 mph - N/A   Clear
4:10 AM 37.4 °F 27.2 °F 23.0 °F 56% 30.46 in 10.0 mi West 19.6 mph - N/A   Clear
4:30 AM 35.6 °F 25.5 °F 21.2 °F 56% 30.45 in 10.0 mi WSW 17.3 mph - N/A   Clear
4:50 AM 35.6 °F 24.2 °F 21.2 °F 56% 30.45 in 10.0 mi WSW 21.9 mph - N/A   Clear
5:10 AM 35.6 °F 24.5 °F 21.2 °F 56% 30.45 in 10.0 mi WSW 20.7 mph - N/A   Clear
5:30 AM 35.6 °F 24.5 °F 21.2 °F 56% 30.44 in 10.0 mi WSW 20.7 mph - N/A   Clear
5:50 AM 35.6 °F 24.2 °F 21.2 °F 56% 30.44 in 10.0 mi WSW 21.9 mph - N/A   Clear
6:10 AM 35.6 °F 24.8 °F 21.2 °F 56% 30.43 in 10.0 mi WSW 19.6 mph - N/A   Clear
6:30 AM 33.8 °F 21.6 °F 21.2 °F 60% 30.43 in 10.0 mi WSW 23.0 mph - N/A   Clear
6:50 AM 33.8 °F 21.3 °F 17.6 °F 52% 30.43 in 10.0 mi WSW 24.2 mph - N/A   Clear
7:10 AM 33.8 °F 21.6 °F 15.8 °F 48% 30.42 in 10.0 mi SW 23.0 mph - N/A   Clear
7:30 AM 33.8 °F 21.6 °F 15.8 °F 48% 30.42 in 10.0 mi SW 23.0 mph - N/A   Clear
7:50 AM 33.8 °F 21.9 °F 15.8 °F 48% 30.42 in 10.0 mi WSW 21.9 mph - N/A   Clear
8:10 AM 33.8 °F 21.6 °F 15.8 °F 48% 30.42 in 10.0 mi SW 23.0 mph - N/A   Clear
8:30 AM 35.6 °F 24.2 °F 15.8 °F 44% 30.42 in 10.0 mi SW 21.9 mph - N/A   Clear
8:49 AM 37.4 °F 26.9 °F 15.8 °F 41% 30.42 in 10.0 mi WSW 20.7 mph - N/A   Clear
9:09 AM 37.4 °F 26.4 °F 14.0 °F 38% 30.42 in 10.0 mi WSW 23.0 mph 26.5 mph N/A   Clear
9:29 AM 39.2 °F 29.3 °F 14.0 °F 36% 30.42 in 10.0 mi SW 20.7 mph - N/A   Clear
9:49 AM 39.2 °F 28.3 °F 14.0 °F 36% 30.41 in 10.0 mi WSW 25.3 mph 29.9 mph N/A   Clear
10:10 AM 41.0 °F 30.7 °F 14.0 °F 33% 30.41 in 10.0 mi WSW 25.3 mph 32.2 mph N/A   Clear
10:23 AM 41.0 °F 30.0 °F 12.2 °F 31% 30.40 in 10.0 mi WSW 28.8 mph 34.5 mph N/A   Clear
12:35 PM 44.6 °F 34.7 °F 14.0 °F 29% 30.36 in 10.0 mi West 29.9 mph 35.7 mph N/A   Unknown
12:55 PM 44.6 °F 35.5 °F 14.0 °F 29% 30.36 in 10.0 mi West 25.3 mph 34.5 mph N/A   Clear
1:15 PM 46.4 °F 38.7 °F 15.8 °F 29% 30.35 in 10.0 mi WSW 20.7 mph 32.2 mph N/A   Clear
1:35 PM 46.4 °F 39.5 °F 17.6 °F 32% 30.34 in 10.0 mi SW 17.3 mph 32.2 mph N/A   Clear
1:55 PM 48.2 °F - 19.4 °F 32% 30.32 in 10.0 mi WSW 26.5 mph 33.4 mph N/A   Clear
2:15 PM 48.2 °F - 19.4 °F 32% 30.32 in 10.0 mi SW 23.0 mph 31.1 mph N/A   Clear
2:35 PM 48.2 °F - 19.4 °F 32% 30.31 in 10.0 mi SW 23.0 mph 33.4 mph N/A   Clear
2:55 PM 48.2 °F - 19.4 °F 32% 30.31 in 10.0 mi WSW 26.5 mph 31.1 mph N/A   Clear
3:15 PM 50.0 °F - 19.4 °F 30% 30.31 in 10.0 mi WSW 24.2 mph 32.2 mph N/A   Clear
3:35 PM 50.0 °F - 19.4 °F 30% 30.30 in 10.0 mi SW 24.2 mph 31.1 mph N/A   Clear
3:55 PM 50.0 °F - 19.4 °F 30% 30.30 in 10.0 mi SW 28.8 mph 38.0 mph N/A   Clear
4:15 PM 50.0 °F - 19.4 °F 30% 30.30 in 10.0 mi WSW 27.6 mph 33.4 mph N/A   Clear
4:34 PM 48.2 °F - 19.4 °F 32% 30.30 in 10.0 mi WSW 26.5 mph 36.8 mph N/A   Clear
4:55 PM 46.4 °F 37.5 °F 21.2 °F 37% 30.29 in 10.0 mi West 27.6 mph 34.5 mph N/A   Clear
5:15 PM 46.4 °F 38.3 °F 21.2 °F 37% 30.29 in 10.0 mi WSW 23.0 mph 29.9 mph N/A   Clear
5:35 PM 46.4 °F 38.1 °F 23.0 °F 40% 30.29 in 10.0 mi West 24.2 mph 29.9 mph N/A   Clear
5:55 PM 44.6 °F 36.1 °F 23.0 °F 43% 30.29 in 10.0 mi WSW 21.9 mph 31.1 mph N/A   Clear
6:15 PM 42.8 °F 32.9 °F 23.0 °F 46% 30.29 in 10.0 mi WSW 26.5 mph 35.7 mph N/A   Clear
6:35 PM 41.0 °F 30.2 °F 23.0 °F 49% 30.29 in 10.0 mi WSW 27.6 mph 32.2 mph N/A   Clear
6:55 PM 41.0 °F 30.7 °F 23.0 °F 49% 30.30 in 10.0 mi WSW 25.3 mph 34.5 mph N/A   Clear
7:15 PM 39.2 °F 28.5 °F 23.0 °F 52% 30.30 in 10.0 mi WSW 24.2 mph 32.2 mph N/A   Clear
7:35 PM 37.4 °F 26.4 °F 23.0 °F 56% 30.30 in 10.0 mi WSW 23.0 mph 29.9 mph N/A   Scattered Clouds
7:55 PM 37.4 °F 25.4 °F 23.0 °F 56% 30.30 in 10.0 mi WSW 27.6 mph 32.2 mph N/A   Clear
8:15 PM 35.6 °F 23.7 °F 23.0 °F 60% 30.31 in 10.0 mi WSW 24.2 mph 31.1 mph N/A   Clear
8:35 PM 35.6 °F 23.2 °F 23.0 °F 60% 30.31 in 10.0 mi WSW 26.5 mph 32.2 mph N/A   Clear
8:55 PM 35.6 °F 23.2 °F 23.0 °F 60% 30.32 in 10.0 mi WSW 26.5 mph 32.2 mph N/A   Clear
9:15 PM 35.6 °F 24.0 °F 23.0 °F 60% 30.32 in 10.0 mi WSW 23.0 mph 31.1 mph N/A   Clear
9:35 PM 35.6 °F 23.2 °F 23.0 °F 60% 30.32 in 10.0 mi WSW 26.5 mph - N/A   Clear
9:55 PM 35.6 °F 23.0 °F 23.0 °F 60% 30.32 in 10.0 mi WSW 27.6 mph - N/A   Clear
10:15 PM 33.8 °F 21.0 °F 23.0 °F 65% 30.31 in 10.0 mi WSW 25.3 mph 32.2 mph N/A   Clear
10:35 PM 33.8 °F 20.1 °F 23.0 °F 65% 30.30 in 10.0 mi WSW 29.9 mph - N/A   Clear
10:55 PM 35.6 °F 23.4 °F 21.2 °F 56% 30.31 in 10.0 mi WSW 25.3 mph - N/A   Clear
11:15 PM 33.8 °F 20.8 °F 21.2 °F 60% 30.30 in 10.0 mi SW 26.5 mph - N/A   Clear
11:35 PM 33.8 °F 21.0 °F 21.2 °F 60% 30.31 in 10.0 mi WSW 25.3 mph - N/A   Clear
11:55 PM 33.8 °F 22.2 °F 21.2 °F 60% 30.31 in 10.0 mi SW 20.7 mph 28.8 mph N/A   Scattered Clouds